Time;durP1;ratioP1;P1;durP2;ratioP2;P2;SDS_P1;SDS_P2;PMS_P1;PMS_P2;Temp;Humidity;BMP_temperature;BMP_pressure;BME280_temperature;BME280_humidity;BME280_pressure;Samples;Min_cycle;Max_cycle;Signal;HPM_P1;HPM_P2
2023/04/04 00:02:23;;;;;;;;;;;;;;;22.20;29.83;97155.50;4981598;28;1855;-74
2023/04/04 00:04:48;;;;;;;;;;;;;;;22.08;29.66;97148.69;5016575;28;1218;-74
2023/04/04 00:07:14;;;;;;;;;;;;;;;22.00;29.59;97143.78;5016829;28;960;-74
2023/04/04 00:09:40;;;;;;;;;;;;;;;21.91;29.70;97146.59;4999321;28;909;-74
2023/04/04 00:12:05;;;;;;;;;;;;;;;21.95;30.06;97138.75;5017294;28;939;-74
2023/04/04 00:14:31;;;;;;;;;;;;;;;21.79;30.29;97119.97;4999546;28;1906;-74
2023/04/04 00:16:56;;;;;;;;;;;;;;;21.47;30.44;97068.31;4984847;28;1825;-74
2023/04/04 00:19:23;;;;;;;;;;;;;;;22.41;30.16;97096.34;4995855;28;1225;-75
2023/04/04 00:21:49;;;;;;;;;;;;;;;22.57;29.68;97087.50;4979435;28;905;-74
2023/04/04 00:24:14;;;;;;;;;;;;;;;22.33;30.19;97079.66;4995671;28;884;-74
2023/04/04 00:26:40;;;;;;;;;;;;;;;22.04;29.98;97074.41;4979556;28;925;-74
2023/04/04 00:29:06;;;;;;;;;;;;;;;21.96;29.92;97078.00;4995840;28;947;-74
2023/04/04 00:31:31;;;;;;;;;;;;;;;21.85;30.17;97096.22;4993091;28;1595;-75
2023/04/04 00:33:57;;;;;;;;;;;;;;;21.93;30.24;97090.28;4963370;28;1454;-74
2023/04/04 00:36:23;;;;;;;;;;;;;;;22.52;30.06;97085.31;4963106;28;1918;-74
2023/04/04 00:38:48;;;;;;;;;;;;;;;22.49;30.02;97086.28;4955723;29;1131;-74
2023/04/04 00:41:14;;;;;;;;;;;;;;;22.48;29.85;97073.34;4973403;28;1862;-75
2023/04/04 00:43:40;;;;;;;;;;;;;;;22.13;29.94;97075.72;4959034;28;1065;-74
2023/04/04 00:46:06;;;;;;;;;;;;;;;22.07;29.66;97067.81;4958762;28;975;-75
2023/04/04 00:48:32;;;;;;;;;;;;;;;21.96;29.73;97063.84;4942583;28;1258;-74
2023/04/04 00:50:57;;;;;;;;;;;;;;;21.95;29.96;97053.78;4916550;29;1716;-73
2023/04/04 00:53:23;;;;;;;;;;;;;;;22.05;29.68;97041.19;4917009;29;1085;-74
2023/04/04 00:55:48;;;;;;;;;;;;;;;21.81;30.08;97043.84;4917265;29;1914;-74
2023/04/04 00:58:14;;;;;;;;;;;;;;;22.30;30.27;97040.91;4901424;29;1154;-74
2023/04/04 01:00:40;;;;;;;;;;;;;;;22.47;29.96;97037.75;4916041;29;1871;-74
2023/04/04 01:03:06;;;;;;;;;;;;;;;22.49;29.87;97032.41;4901237;29;966;-74
2023/04/04 01:05:32;;;;;;;;;;;;;;;22.18;29.81;97024.88;4916795;29;1096;-73
2023/04/04 01:07:57;;;;;;;;;;;;;;;22.08;29.74;97011.94;4901281;29;1154;-74
2023/04/04 01:10:23;;;;;;;;;;;;;;;21.71;30.02;97023.25;4929244;29;1150;-74
2023/04/04 01:12:48;;;;;;;;;;;;;;;21.81;30.24;97021.19;4935058;29;1898;-75
2023/04/04 01:15:16;;;;;;;;;;;;;;;22.06;29.92;97001.06;4904573;29;1911;-74
2023/04/04 01:17:43;;;;;;;;;;;;;;;21.74;30.55;96999.63;4920301;29;1113;-74
2023/04/04 01:20:12;;;;;;;;;;;;;;;21.85;30.33;97005.63;4904733;29;1194;-74
2023/04/04 01:22:43;;;;;;;;;;;;;;;22.44;29.84;96999.81;4905438;29;1290;-74
2023/04/04 01:25:09;;;;;;;;;;;;;;;22.68;29.37;96996.28;4904562;29;1122;-74
2023/04/04 01:27:38;;;;;;;;;;;;;;;22.33;29.73;97005.19;4893427;29;1968;-74
2023/04/04 01:30:10;;;;;;;;;;;;;;;22.06;30.19;96991.78;4901904;29;1234;-74
2023/04/04 01:32:36;;;;;;;;;;;;;;;22.16;29.79;96996.22;4916697;29;940;-74
2023/04/04 01:35:28;;;;;;;;;;;;;;;21.89;30.08;96999.03;4900976;29;1980;-74
2023/04/04 01:37:58;;;;;;;;;;;;;;;21.99;30.42;96986.44;4835075;29;1944;-75
2023/04/04 01:40:24;;;;;;;;;;;;;;;22.38;30.06;96987.53;4827144;29;1465;-74
2023/04/04 01:42:52;;;;;;;;;;;;;;;22.32;30.06;96981.69;4826922;29;1140;-75
2023/04/04 01:45:20;;;;;;;;;;;;;;;21.73;30.90;96981.06;4827104;29;1507;-75
2023/04/04 01:47:46;;;;;;;;;;;;;;;22.19;29.64;96978.28;4844647;29;1241;-74
2023/04/04 01:50:18;;;;;;;;;;;;;;;21.90;29.82;96972.28;4864038;29;1175;-73
2023/04/04 01:52:43;;;;;;;;;;;;;;;21.92;30.04;96964.88;4859764;29;1892;-75
2023/04/04 01:55:09;;;;;;;;;;;;;;;21.82;30.06;96955.59;4833341;29;1976;-74
2023/04/04 01:57:36;;;;;;;;;;;;;;;21.72;30.25;96950.41;4848428;29;1267;-74
2023/04/04 02:00:01;;;;;;;;;;;;;;;21.61;30.46;96950.88;4834488;29;1884;-74
2023/04/04 02:02:28;;;;;;;;;;;;;;;21.68;30.39;96936.41;4851768;29;1136;-74
2023/04/04 02:04:54;;;;;;;;;;;;;;;22.19;30.11;96927.28;4866875;29;1117;-74
2023/04/04 02:07:19;;;;;;;;;;;;;;;22.40;30.15;96930.38;4898825;29;943;-74
2023/04/04 02:09:45;;;;;;;;;;;;;;;22.49;29.92;96928.31;4920293;29;931;-74
2023/04/04 02:12:11;;;;;;;;;;;;;;;22.31;29.66;96906.47;4920017;29;1139;-74
2023/04/04 02:14:37;;;;;;;;;;;;;;;22.07;29.84;96905.53;4917089;28;1914;-74
2023/04/04 02:17:03;;;;;;;;;;;;;;;22.01;30.03;96905.38;4982245;28;1322;-73
2023/04/04 02:19:29;;;;;;;;;;;;;;;21.77;30.33;96908.09;4981524;28;1567;-74
2023/04/04 02:21:55;;;;;;;;;;;;;;;21.82;30.54;96910.28;4981863;28;1897;-75
2023/04/04 02:24:21;;;;;;;;;;;;;;;21.64;30.56;96904.63;5014225;28;906;-74
2023/04/04 02:26:47;;;;;;;;;;;;;;;22.34;30.25;96907.56;4981761;28;1116;-75
2023/04/04 02:29:12;;;;;;;;;;;;;;;22.71;29.50;96919.56;4965742;28;1102;-74
2023/04/04 02:31:38;;;;;;;;;;;;;;;22.67;29.47;96924.63;5014116;28;1281;-74
2023/04/04 02:34:04;;;;;;;;;;;;;;;22.33;29.68;96920.97;4981797;28;1103;-74
2023/04/04 02:36:30;;;;;;;;;;;;;;;21.94;30.44;96922.72;4983735;28;1907;-75
2023/04/04 02:38:56;;;;;;;;;;;;;;;21.67;30.41;96915.00;5000800;28;1267;-74
2023/04/04 02:41:25;;;;;;;;;;;;;;;21.78;30.30;96915.31;4969152;28;1124;-74
2023/04/04 02:43:50;;;;;;;;;;;;;;;22.04;29.99;96912.16;4963925;28;1129;-74
2023/04/04 02:46:17;;;;;;;;;;;;;;;22.07;29.91;96897.03;4948163;28;1410;-74
2023/04/04 02:48:43;;;;;;;;;;;;;;;21.92;30.36;96913.91;4979498;28;2304;-74
2023/04/04 02:51:09;;;;;;;;;;;;;;;22.24;30.82;96906.81;4963996;28;1241;-74
2023/04/04 02:53:35;;;;;;;;;;;;;;;22.72;29.56;96898.44;4960575;28;1129;-74
2023/04/04 02:56:13;;;;;;;;;;;;;;;22.49;29.87;96891.47;4960417;28;1977;-74
2023/04/04 02:58:38;;;;;;;;;;;;;;;22.25;29.79;96896.25;4960693;28;1439;-74
2023/04/04 03:01:04;;;;;;;;;;;;;;;21.89;30.42;96897.84;4960601;28;1004;-75
2023/04/04 03:03:34;;;;;;;;;;;;;;;21.67;30.66;96894.41;4955831;28;1525;-74
2023/04/04 03:05:59;;;;;;;;;;;;;;;21.75;30.90;96887.94;4940788;29;1695;-74
2023/04/04 03:08:26;;;;;;;;;;;;;;;21.91;30.49;96888.88;4921870;29;1704;-74
2023/04/04 03:10:56;;;;;;;;;;;;;;;21.98;30.21;96888.56;4922808;29;1257;-74
2023/04/04 03:13:21;;;;;;;;;;;;;;;22.10;30.63;96879.09;4921985;29;1139;-74
2023/04/04 03:15:48;;;;;;;;;;;;;;;22.85;29.73;96882.00;4908124;29;1970;-75
2023/04/04 03:18:15;;;;;;;;;;;;;;;22.63;29.69;96870.91;4937870;29;1244;-74
2023/04/04 03:20:41;;;;;;;;;;;;;;;22.61;29.62;96876.28;4938844;29;2051;-73
2023/04/04 03:23:07;;;;;;;;;;;;;;;22.36;29.76;96866.13;4955656;28;1694;-74
2023/04/04 03:25:33;;;;;;;;;;;;;;;22.32;29.79;96876.84;4968585;28;1753;-75
2023/04/04 03:28:06;;;;;;;;;;;;;;;22.12;29.67;96870.91;4976448;28;1029;-74
2023/04/04 03:30:32;;;;;;;;;;;;;;;21.78;30.47;96863.56;4976169;28;926;-74
2023/04/04 03:32:58;;;;;;;;;;;;;;;22.14;30.02;96868.41;4966125;28;1691;-74
2023/04/04 03:35:23;;;;;;;;;;;;;;;21.86;30.42;96873.31;4962990;28;1906;-73
2023/04/04 03:37:49;;;;;;;;;;;;;;;22.09;30.17;96877.53;4973366;28;1739;-74
2023/04/04 03:40:15;;;;;;;;;;;;;;;22.29;30.40;96879.88;4998483;28;1146;-74
2023/04/04 03:42:41;;;;;;;;;;;;;;;22.50;30.04;96887.34;4982505;28;1125;-75
2023/04/04 03:45:09;;;;;;;;;;;;;;;22.33;30.46;96886.94;4998967;28;1386;-74
2023/04/04 03:47:36;;;;;;;;;;;;;;;22.22;30.49;96892.31;4971456;28;1988;-74
2023/04/04 03:50:01;;;;;;;;;;;;;;;22.22;30.16;96891.53;4983419;28;1393;-75
2023/04/04 03:52:28;;;;;;;;;;;;;;;21.96;30.39;96885.41;4999764;28;1179;-74
2023/04/04 03:54:54;;;;;;;;;;;;;;;22.16;30.05;96888.56;5017429;28;1979;-74
2023/04/04 03:57:19;;;;;;;;;;;;;;;22.04;30.17;96892.34;4999591;28;969;-74
2023/04/04 03:59:45;;;;;;;;;;;;;;;21.99;30.42;96882.41;4983413;28;1192;-74
2023/04/04 04:02:11;;;;;;;;;;;;;;;21.97;30.32;96892.66;4994799;28;1195;-74
2023/04/04 04:04:37;;;;;;;;;;;;;;;21.97;30.46;96898.34;4978575;28;1058;-75
2023/04/04 04:07:03;;;;;;;;;;;;;;;22.02;30.25;96889.16;4978935;28;923;-73
2023/04/04 04:09:28;;;;;;;;;;;;;;;22.02;30.54;96892.00;4978389;28;1240;-74
2023/04/04 04:11:54;;;;;;;;;;;;;;;21.81;30.66;96888.91;4994691;28;939;-74
2023/04/04 04:14:20;;;;;;;;;;;;;;;22.67;30.15;96899.09;4959042;28;1145;-73
2023/04/04 04:16:46;;;;;;;;;;;;;;;22.42;30.37;96899.50;4958505;28;1969;-74
2023/04/04 04:19:17;;;;;;;;;;;;;;;22.21;30.70;96887.91;4959753;28;1206;-73
2023/04/04 04:21:43;;;;;;;;;;;;;;;22.21;30.37;96889.97;4917963;29;936;-73
2023/04/04 04:24:09;;;;;;;;;;;;;;;22.04;30.47;96875.34;4901873;29;1536;-74
2023/04/04 04:26:35;;;;;;;;;;;;;;;22.14;30.05;96874.09;4901969;29;1070;-73
2023/04/04 04:29:01;;;;;;;;;;;;;;;22.23;30.05;96871.22;4917507;29;912;-75
2023/04/04 04:31:30;;;;;;;;;;;;;;;22.23;29.75;96865.56;4886789;29;1194;-74
2023/04/04 04:33:56;;;;;;;;;;;;;;;21.95;30.58;96855.53;4886118;29;1307;-74
2023/04/04 04:36:26;;;;;;;;;;;;;;;22.22;29.77;96846.19;4886683;29;1922;-74
2023/04/04 04:39:13;;;;;;;;;;;;;;;22.62;29.90;96826.03;4901434;29;1426;-74
2023/04/04 04:41:47;;;;;;;;;;;;;;;22.71;29.77;96828.81;4902770;29;1165;-74
2023/04/04 04:44:13;;;;;;;;;;;;;;;22.32;30.49;96822.22;4862563;29;1087;-73
2023/04/04 04:46:39;;;;;;;;;;;;;;;22.56;29.88;96811.72;4883270;29;1335;-73
2023/04/04 04:49:11;;;;;;;;;;;;;;;22.23;30.12;96803.22;4883734;29;1107;-73
2023/04/04 04:51:37;;;;;;;;;;;;;;;22.15;30.22;96802.00;4898534;29;1234;-74
2023/04/04 04:54:04;;;;;;;;;;;;;;;21.91;30.55;96792.59;4883207;29;998;-74
2023/04/04 04:56:31;;;;;;;;;;;;;;;22.46;30.58;96795.25;4912508;29;1977;-74
2023/04/04 04:59:06;;;;;;;;;;;;;;;22.59;30.22;96788.09;4920278;29;1238;-74
2023/04/04 05:01:31;;;;;;;;;;;;;;;22.46;30.15;96798.09;4955201;29;1464;-74
2023/04/04 05:03:57;;;;;;;;;;;;;;;22.16;30.65;96809.22;4939007;29;1284;-73
2023/04/04 05:06:31;;;;;;;;;;;;;;;22.01;30.26;96809.06;4925250;29;1577;-74
2023/04/04 05:08:56;;;;;;;;;;;;;;;21.99;30.42;96805.16;4938847;29;1194;-73
2023/04/04 05:11:28;;;;;;;;;;;;;;;22.18;30.20;96823.72;4938868;29;1452;-74
2023/04/04 05:13:54;;;;;;;;;;;;;;;22.03;30.63;96845.44;4939045;29;1188;-74
2023/04/04 05:16:21;;;;;;;;;;;;;;;21.79;30.92;96851.78;4965607;28;1954;-75
2023/04/04 05:18:48;;;;;;;;;;;;;;;21.98;30.59;96865.91;5016147;28;967;-74
2023/04/04 05:21:14;;;;;;;;;;;;;;;21.78;30.97;96886.22;4982067;28;1206;-73
2023/04/04 05:23:41;;;;;;;;;;;;;;;22.44;30.48;96880.00;4958199;28;1136;-74
2023/04/04 05:26:07;;;;;;;;;;;;;;;22.54;30.46;96881.53;4942380;28;1101;-73
2023/04/04 05:28:36;;;;;;;;;;;;;;;22.42;30.64;96893.84;4930916;28;1287;-74
2023/04/04 05:31:04;;;;;;;;;;;;;;;22.43;30.11;96898.22;4962664;28;1244;-73
2023/04/04 05:33:32;;;;;;;;;;;;;;;22.03;30.27;96890.75;4962458;28;1239;-74
2023/04/04 05:36:11;;;;;;;;;;;;;;;22.10;29.82;96908.22;4947633;28;1911;-74
2023/04/04 05:38:43;;;;;;;;;;;;;;;22.20;29.69;96900.50;4931874;28;1391;-74
2023/04/04 05:41:10;;;;;;;;;;;;;;;21.90;30.41;96904.31;4962334;28;1273;-74
2023/04/04 05:43:36;;;;;;;;;;;;;;;22.08;29.78;96892.97;4962154;28;1037;-74
2023/04/04 05:46:07;;;;;;;;;;;;;;;21.98;29.79;96889.34;4962877;28;1349;-74
2023/04/04 05:48:52;;;;;;;;;;;;;;;22.19;30.40;96876.28;4948395;28;1409;-74
2023/04/04 05:51:18;;;;;;;;;;;;;;;22.08;30.29;96875.97;4962000;28;1143;-74
2023/04/04 05:54:06;;;;;;;;;;;;;;;22.03;30.25;96873.78;4963845;28;1247;-74
2023/04/04 05:56:33;;;;;;;;;;;;;;;21.94;29.92;96870.94;4945929;28;1981;-74
2023/04/04 05:59:00;;;;;;;;;;;;;;;21.83;29.60;96883.53;4962230;28;1152;-75
2023/04/04 06:01:28;;;;;;;;;;;;;;;22.01;29.18;96876.28;4978022;28;985;-74
2023/04/04 06:03:56;;;;;;;;;;;;;;;22.04;28.97;96886.66;4977642;28;1254;-70
2023/04/04 06:06:26;;;;;;;;;;;;;;;22.47;28.78;96884.69;4962221;28;1169;-69
2023/04/04 06:08:52;;;;;;;;;;;;;;;22.80;28.54;96879.03;4961592;28;1267;-69
2023/04/04 06:11:17;;;;;;;;;;;;;;;22.51;29.55;96873.97;4977738;28;973;-71
2023/04/04 06:13:43;;;;;;;;;;;;;;;22.65;29.66;96870.44;4961571;28;1010;-71
2023/04/04 06:16:13;;;;;;;;;;;;;;;22.42;30.25;96866.28;4962119;28;1922;-73
2023/04/04 06:18:39;;;;;;;;;;;;;;;22.88;29.60;96852.69;4961364;28;1131;-73
2023/04/04 06:21:05;;;;;;;;;;;;;;;22.77;29.25;96857.31;4977626;28;942;-74
2023/04/04 06:23:31;;;;;;;;;;;;;;;21.98;30.60;96855.38;4961273;28;1281;-74
2023/04/04 06:25:57;;;;;;;;;;;;;;;21.91;30.35;96866.22;4995556;28;1235;-74
2023/04/04 06:28:23;;;;;;;;;;;;;;;21.96;30.10;96868.41;4984754;28;1265;-73
2023/04/04 06:30:49;;;;;;;;;;;;;;;22.00;29.97;96874.72;5001369;28;1156;-74
2023/04/04 06:33:25;;;;;;;;;;;;;;;21.53;30.65;96870.34;4986213;28;1196;-75
2023/04/04 06:35:50;;;;;;;;;;;;;;;21.58;30.48;96855.56;5001471;28;1910;-75
2023/04/04 06:38:16;;;;;;;;;;;;;;;21.92;30.02;96859.31;4960575;28;1060;-73
2023/04/04 06:40:42;;;;;;;;;;;;;;;22.19;29.92;96847.94;4961147;28;1009;-74
2023/04/04 06:43:09;;;;;;;;;;;;;;;22.04;30.30;96844.19;4928812;28;1413;-75
2023/04/04 06:45:41;;;;;;;;;;;;;;;21.97;30.25;96838.84;4961688;28;1173;-74
2023/04/04 06:48:07;;;;;;;;;;;;;;;21.82;30.28;96841.56;4922215;29;1307;-73
2023/04/04 06:50:32;;;;;;;;;;;;;;;21.90;29.92;96830.66;4938177;29;1124;-73
2023/04/04 06:53:00;;;;;;;;;;;;;;;21.88;29.34;96833.97;4938113;29;1692;-74
2023/04/04 06:55:26;;;;;;;;;;;;;;;21.78;29.75;96827.56;4937927;29;1978;-73
2023/04/04 06:57:51;;;;;;;;;;;;;;;21.83;29.36;96809.94;4938033;29;1004;-74
2023/04/04 07:00:17;;;;;;;;;;;;;;;21.94;29.47;96802.97;4938519;29;1038;-75
2023/04/04 07:02:42;;;;;;;;;;;;;;;21.54;29.82;96792.66;4957153;29;1416;-75
2023/04/04 07:05:08;;;;;;;;;;;;;;;21.76;29.54;96796.09;4941205;29;1326;-74
2023/04/04 07:07:34;;;;;;;;;;;;;;;22.17;29.18;96790.94;4957236;29;988;-74
2023/04/04 07:10:00;;;;;;;;;;;;;;;22.26;29.37;96781.63;4956940;28;1143;-74
2023/04/04 07:12:25;;;;;;;;;;;;;;;22.18;29.40;96767.03;4944290;28;1199;-74
2023/04/04 07:14:51;;;;;;;;;;;;;;;22.06;29.50;96756.66;4944076;28;1985;-74
2023/04/04 07:17:17;;;;;;;;;;;;;;;22.25;28.88;96752.53;4921714;29;1141;-74
2023/04/04 07:19:42;;;;;;;;;;;;;;;21.67;29.52;96742.34;4936781;29;1165;-74
2023/04/04 07:22:08;;;;;;;;;;;;;;;21.59;29.94;96738.25;4940617;29;971;-74
2023/04/04 07:24:33;;;;;;;;;;;;;;;21.41;30.55;96749.63;4957040;29;1025;-74
2023/04/04 07:26:59;;;;;;;;;;;;;;;22.30;29.14;96780.22;5406384;22;3794;-78
2023/04/04 07:29:25;;;;;;;;;;;;;;;23.03;28.58;96793.19;5003283;28;1155;-78
2023/04/04 07:31:50;;;;;;;;;;;;;;;22.73;29.33;96806.44;5021035;28;929;-77
2023/04/04 07:34:16;;;;;;;;;;;;;;;22.09;30.31;96793.31;5020578;28;969;-78
2023/04/04 07:39:30;;;;;;;;;;;;;;;22.80;30.23;96762.78;5146131;23;2113;-79
2023/04/04 07:41:56;;;;;;;;;;;;;;;22.85;30.62;96754.38;4981093;28;878;-79
2023/04/04 07:44:22;;;;;;;;;;;;;;;22.26;31.03;96750.47;4998854;28;981;-79
2023/04/04 07:46:48;;;;;;;;;;;;;;;21.93;31.01;96733.44;4981623;28;1089;-79
2023/04/04 07:49:14;;;;;;;;;;;;;;;21.83;31.01;96746.84;5136102;23;3648;-74
2023/04/04 07:51:39;;;;;;;;;;;;;;;22.85;30.82;96728.84;4958793;29;1132;-75
2023/04/04 07:54:05;;;;;;;;;;;;;;;22.64;31.17;96718.63;4959750;29;1115;-75
2023/04/04 07:56:31;;;;;;;;;;;;;;;22.32;31.12;96726.66;4942512;29;1963;-74
2023/04/04 07:58:56;;;;;;;;;;;;;;;22.00;31.33;96733.09;4959461;29;898;-74
2023/04/04 08:01:22;;;;;;;;;;;;;;;22.03;30.75;96740.63;4919148;29;1052;-74
2023/04/04 08:03:48;;;;;;;;;;;;;;;22.06;31.14;96751.00;4865665;29;1303;-74
2023/04/04 08:06:14;;;;;;;;;;;;;;;21.87;31.62;96747.47;4850641;29;1142;-75
2023/04/04 08:08:41;;;;;;;;;;;;;;;21.77;31.51;96743.88;4866152;29;1052;-74
2023/04/04 08:11:13;;;;;;;;;;;;;;;21.78;31.34;96744.66;5160949;27;1259;-75
2023/04/04 08:13:38;;;;;;;;;;;;;;;21.66;31.84;96752.09;5126847;28;1237;-75
2023/04/04 08:16:04;;;;;;;;;;;;;;;21.55;31.65;96748.94;5109773;28;1133;-75
2023/04/04 08:18:31;;;;;;;;;;;;;;;21.77;31.49;96731.78;5093650;28;931;-75
2023/04/04 08:20:56;;;;;;;;;;;;;;;21.74;31.26;96719.34;5109767;28;1213;-75
2023/04/04 08:23:22;;;;;;;;;;;;;;;21.61;31.56;96724.44;5126696;28;920;-75
2023/04/04 08:25:48;;;;;;;;;;;;;;;21.79;30.96;96717.91;5126700;28;872;-75
2023/04/04 08:28:14;;;;;;;;;;;;;;;21.74;31.02;96727.84;5093644;28;920;-75
2023/04/04 08:30:40;;;;;;;;;;;;;;;21.78;31.14;96739.78;5093767;28;1910;-75
2023/04/04 08:33:05;;;;;;;;;;;;;;;21.56;31.24;96750.53;5126174;28;941;-75
2023/04/04 08:35:31;;;;;;;;;;;;;;;21.47;31.62;96747.72;5126472;28;868;-75
2023/04/04 08:37:56;;;;;;;;;;;;;;;21.75;31.04;96752.03;5093746;28;850;-75
2023/04/04 08:40:22;;;;;;;;;;;;;;;22.34;30.93;96749.66;5093371;28;978;-75
2023/04/04 08:42:47;;;;;;;;;;;;;;;22.71;30.92;96746.59;5109399;28;1061;-76
2023/04/04 08:45:15;;;;;;;;;;;;;;;22.81;30.39;96739.59;5109232;28;897;-76
2023/04/04 08:47:41;;;;;;;;;;;;;;;22.20;31.51;96747.50;5091993;28;1149;-76
2023/04/04 08:50:07;;;;;;;;;;;;;;;21.96;31.50;96752.28;5109229;28;1913;-74
2023/04/04 08:52:33;;;;;;;;;;;;;;;21.94;31.51;96758.44;5126112;28;937;-75
2023/04/04 08:54:59;;;;;;;;;;;;;;;22.27;31.08;96760.53;5114216;28;1332;-66
2023/04/04 08:57:25;;;;;;;;;;;;;;;22.13;31.47;96761.25;5114668;28;900;-75
2023/04/04 08:59:50;;;;;;;;;;;;;;;21.91;31.53;96775.59;5097718;28;997;-75
2023/04/04 09:02:39;;;;;;;;;;;;;;;21.84;31.32;96771.06;5080502;28;1284;-73
2023/04/04 09:05:05;;;;;;;;;;;;;;;21.83;31.14;96769.50;5069999;28;1879;-74
2023/04/04 09:07:31;;;;;;;;;;;;;;;21.96;30.68;96743.78;5053789;28;1019;-74
2023/04/04 09:09:56;;;;;;;;;;;;;;;21.66;31.34;96760.59;5036617;28;1906;-73
2023/04/04 09:12:22;;;;;;;;;;;;;;;21.50;31.56;96755.25;5053825;28;1094;-73
2023/04/04 09:14:49;;;;;;;;;;;;;;;22.43;30.50;96760.13;5069895;28;1107;-74
2023/04/04 09:17:15;;;;;;;;;;;;;;;22.75;30.18;96758.53;5069600;28;1069;-74
2023/04/04 09:19:40;;;;;;;;;;;;;;;22.66;30.25;96772.78;5036470;28;1174;-73
2023/04/04 09:22:06;;;;;;;;;;;;;;;22.14;30.96;96772.09;5042663;28;1130;-75
2023/04/04 09:24:39;;;;;;;;;;;;;;;22.03;30.75;96768.97;5040082;28;1010;-74
2023/04/04 09:27:05;;;;;;;;;;;;;;;21.84;30.63;96777.50;5018061;28;1018;-74
2023/04/04 09:29:31;;;;;;;;;;;;;;;21.77;30.62;96783.50;5000359;28;1887;-74
2023/04/04 09:31:56;;;;;;;;;;;;;;;21.78;30.86;96779.41;5000305;28;1183;-74
2023/04/04 09:34:22;;;;;;;;;;;;;;;21.76;30.98;96779.13;5000834;28;1004;-74
2023/04/04 09:36:48;;;;;;;;;;;;;;;21.76;30.64;96781.94;5000558;28;1215;-74
2023/04/04 09:39:16;;;;;;;;;;;;;;;21.63;31.16;96781.34;5017197;28;1053;-74
2023/04/04 09:41:43;;;;;;;;;;;;;;;21.51;31.25;96773.81;5037684;28;1026;-74
2023/04/04 09:44:12;;;;;;;;;;;;;;;21.76;31.00;96783.97;5059906;28;1007;-68
2023/04/04 09:46:38;;;;;;;;;;;;;;;22.28;30.89;96787.63;5059702;28;1059;-67
2023/04/04 09:49:04;;;;;;;;;;;;;;;22.20;31.06;96790.00;5059893;28;1967;-70
2023/04/04 09:51:35;;;;;;;;;;;;;;;22.33;31.11;96784.94;5059614;28;945;-75
2023/04/04 09:54:01;;;;;;;;;;;;;;;21.77;31.84;96789.19;5019278;28;1022;-75
2023/04/04 09:56:26;;;;;;;;;;;;;;;21.69;31.88;96790.75;5036240;28;970;-76
2023/04/04 09:58:52;;;;;;;;;;;;;;;21.76;31.48;96779.13;5019748;28;965;-75
2023/04/04 10:01:18;;;;;;;;;;;;;;;21.84;31.09;96777.50;5019774;28;956;-74
2023/04/04 10:03:43;;;;;;;;;;;;;;;21.63;31.19;96772.84;5019458;28;970;-75
2023/04/04 10:06:09;;;;;;;;;;;;;;;21.54;31.41;96767.19;5019173;28;1416;-75
2023/04/04 10:08:36;;;;;;;;;;;;;;;21.62;30.74;96774.09;5019220;28;943;-75
2023/04/04 10:11:02;;;;;;;;;;;;;;;21.62;30.52;96767.66;5015627;28;1917;-75
2023/04/04 10:13:28;;;;;;;;;;;;;;;21.77;30.22;96765.75;5050800;28;1530;-75
2023/04/04 10:15:54;;;;;;;;;;;;;;;21.64;30.31;96780.06;5038765;28;2018;-75
2023/04/04 10:18:21;;;;;;;;;;;;;;;21.83;30.33;96792.16;5081198;28;1497;-75
2023/04/04 10:20:47;;;;;;;;;;;;;;;22.36;30.12;96783.94;5080743;28;1572;-75
2023/04/04 10:23:14;;;;;;;;;;;;;;;22.20;30.24;96777.91;5038317;28;1545;-75
2023/04/04 10:25:39;;;;;;;;;;;;;;;22.05;30.42;96783.44;5037538;28;994;-75
2023/04/04 10:28:05;;;;;;;;;;;;;;;22.05;30.03;96784.22;5042026;28;940;-75
2023/04/04 10:30:32;;;;;;;;;;;;;;;21.79;30.30;96786.66;5041871;28;1987;-76
2023/04/04 10:33:01;;;;;;;;;;;;;;;21.58;30.34;96781.97;5041130;28;986;-75
2023/04/04 10:35:27;;;;;;;;;;;;;;;21.73;29.63;96782.09;5058396;28;1058;-75
2023/04/04 10:37:56;;;;;;;;;;;;;;;21.74;29.49;96778.78;5041979;28;1124;-73
2023/04/04 10:40:22;;;;;;;;;;;;;;;21.48;29.99;96769.09;5042076;28;1052;-72
2023/04/04 10:42:47;;;;;;;;;;;;;;;21.77;29.54;96783.50;5058343;28;993;-72
2023/04/04 10:45:13;;;;;;;;;;;;;;;21.68;29.46;96785.56;5025281;28;955;-74
2023/04/04 10:47:40;;;;;;;;;;;;;;;21.64;29.58;96782.91;5038569;28;985;-73
2023/04/04 10:50:07;;;;;;;;;;;;;;;22.26;29.09;96790.91;5038151;28;1977;-73
2023/04/04 10:52:33;;;;;;;;;;;;;;;22.23;29.54;96791.13;5022099;28;1184;-74
2023/04/04 10:54:59;;;;;;;;;;;;;;;22.40;29.32;96788.66;5037733;28;1351;-74
2023/04/04 10:57:25;;;;;;;;;;;;;;;21.91;29.90;96789.75;5038046;28;1102;-74
2023/04/04 11:00:09;;;;;;;;;;;;;;;21.79;30.15;96780.97;5038658;28;1068;-74
2023/04/04 11:02:47;;;;;;;;;;;;;;;21.87;29.93;96786.34;5074541;28;1374;-74
2023/04/04 11:05:12;;;;;;;;;;;;;;;21.99;29.98;96788.16;5057519;28;1261;-74
2023/04/04 11:07:39;;;;;;;;;;;;;;;21.89;29.98;96792.28;5074377;28;975;-74
2023/04/04 11:10:25;;;;;;;;;;;;;;;21.98;30.06;96789.44;5074074;28;1961;-74
2023/04/04 11:12:53;;;;;;;;;;;;;;;21.84;30.38;96782.38;5057389;28;1224;-74
2023/04/04 11:15:21;;;;;;;;;;;;;;;21.83;30.23;96781.59;5074208;28;985;-74
2023/04/04 11:17:51;;;;;;;;;;;;;;;21.68;30.78;96786.34;5074198;28;1240;-73
2023/04/04 11:20:21;;;;;;;;;;;;;;;21.62;30.79;96788.25;5063004;28;1983;-74
2023/04/04 11:22:51;;;;;;;;;;;;;;;22.43;30.04;96787.69;5063710;28;1511;-73
2023/04/04 11:25:32;;;;;;;;;;;;;;;22.63;29.68;96773.72;5049141;28;1619;-73
2023/04/04 11:27:58;;;;;;;;;;;;;;;22.45;30.00;96768.19;5045618;28;1607;-73
2023/04/04 11:30:24;;;;;;;;;;;;;;;22.16;30.26;96774.44;5055655;28;1910;-75
2023/04/04 11:32:50;;;;;;;;;;;;;;;22.02;30.08;96775.88;5059298;28;1541;-75
2023/04/04 11:35:16;;;;;;;;;;;;;;;22.02;30.03;96776.69;5045902;28;1545;-75
2023/04/04 11:37:42;;;;;;;;;;;;;;;21.89;30.44;96772.47;5055995;28;1532;-73
2023/04/04 11:40:08;;;;;;;;;;;;;;;21.92;30.55;96772.31;5063950;28;1539;-74
2023/04/04 11:42:33;;;;;;;;;;;;;;;21.98;30.45;96772.44;5062384;28;1291;-75
2023/04/04 11:45:00;;;;;;;;;;;;;;;21.78;30.74;96773.75;5070562;28;1417;-74
2023/04/04 11:47:26;;;;;;;;;;;;;;;21.81;30.59;96772.00;5074164;28;988;-74
2023/04/04 11:49:52;;;;;;;;;;;;;;;21.77;30.84;96772.19;5057515;28;1906;-74
2023/04/04 11:52:18;;;;;;;;;;;;;;;21.78;30.74;96773.75;5057351;28;1236;-74
2023/04/04 11:54:44;;;;;;;;;;;;;;;21.89;30.44;96761.91;5075897;28;924;-74
2023/04/04 11:57:13;;;;;;;;;;;;;;;21.78;30.62;96767.31;5075234;28;1270;-74
2023/04/04 11:59:40;;;;;;;;;;;;;;;21.79;30.52;96763.22;5075014;28;1094;-74
2023/04/04 12:02:06;;;;;;;;;;;;;;;21.46;31.33;96768.78;5075224;28;860;-75
2023/04/04 12:04:31;;;;;;;;;;;;;;;21.60;31.37;96765.28;5074984;28;926;-75
2023/04/04 12:06:57;;;;;;;;;;;;;;;21.84;30.55;96759.72;5076193;28;934;-75
2023/04/04 12:09:24;;;;;;;;;;;;;;;21.71;30.85;96759.13;5074872;28;1963;-75
2023/04/04 12:11:50;;;;;;;;;;;;;;;21.64;30.86;96760.25;5074662;28;975;-75
2023/04/04 12:14:16;;;;;;;;;;;;;;;21.42;31.58;96751.19;5058266;28;1084;-75
2023/04/04 12:16:44;;;;;;;;;;;;;;;21.72;30.83;96758.69;5073757;28;1483;-76
2023/04/04 12:19:10;;;;;;;;;;;;;;;22.00;30.40;96761.41;5056930;28;1346;-76
2023/04/04 12:21:36;;;;;;;;;;;;;;;22.24;30.07;96762.28;5057033;28;1005;-75
2023/04/04 12:24:01;;;;;;;;;;;;;;;20.86;30.32;96577.16;5057351;28;1004;-75
2023/04/04 12:26:28;;;;;;;;;;;;;;;21.66;30.93;96760.59;5056986;28;1049;-75
2023/04/04 12:28:56;;;;;;;;;;;;;;;21.89;31.02;96761.13;5056997;28;1910;-76
2023/04/04 12:31:22;;;;;;;;;;;;;;;22.65;30.15;96759.88;5073559;28;971;-75
2023/04/04 12:33:49;;;;;;;;;;;;;;;22.74;30.24;96751.31;5056937;28;1208;-75
2023/04/04 12:36:15;;;;;;;;;;;;;;;22.55;30.67;96749.84;5073641;28;928;-75
2023/04/04 12:38:59;;;;;;;;;;;;;;;21.93;31.15;96750.44;5056863;28;1170;-75
2023/04/04 12:41:25;;;;;;;;;;;;;;;22.03;30.72;96751.97;5073292;28;968;-75
2023/04/04 12:43:51;;;;;;;;;;;;;;;21.99;30.40;96754.97;5057113;28;988;-75
2023/04/04 12:46:16;;;;;;;;;;;;;;;21.95;30.37;96734.53;5050162;28;1209;-75
2023/04/04 12:48:43;;;;;;;;;;;;;;;21.96;30.62;96738.13;5051539;28;959;-75
2023/04/04 12:51:09;;;;;;;;;;;;;;;22.02;30.61;96734.19;5053679;28;1910;-76
2023/04/04 12:53:34;;;;;;;;;;;;;;;22.09;30.54;96731.00;5053139;28;1093;-75
2023/04/04 12:56:03;;;;;;;;;;;;;;;21.94;31.02;96735.00;5037425;28;939;-76
2023/04/04 12:58:29;;;;;;;;;;;;;;;21.87;30.86;96733.31;5057414;28;966;-75
2023/04/04 13:00:55;;;;;;;;;;;;;;;21.84;30.95;96735.03;5057062;28;943;-75
2023/04/04 13:03:21;;;;;;;;;;;;;;;21.95;30.91;96733.75;5057005;28;973;-75